createdAt,value
2023-03-11T00:01:11.236Z,16.45
2023-03-11T00:03:45.089Z,8.13
2023-03-11T00:08:48.904Z,4.03
2023-03-11T00:11:20.350Z,5.57
2023-03-11T00:13:52.645Z,3.55
2023-03-11T00:16:23.019Z,3.50
2023-03-11T00:18:54.822Z,5.70
2023-03-11T00:21:27.728Z,3.53
2023-03-11T00:24:01.559Z,5.45
2023-03-11T00:26:32.885Z,5.70
2023-03-11T00:29:03.565Z,10.38
2023-03-11T00:31:34.436Z,2.65
2023-03-11T00:34:09.686Z,2.30
2023-03-11T00:36:45.436Z,3.65
2023-03-11T00:39:18.585Z,1.95
2023-03-11T00:41:48.771Z,8.63
2023-03-11T00:44:19.227Z,1.92
2023-03-11T00:46:51.963Z,3.83
2023-03-11T00:49:22.461Z,0.90
2023-03-11T00:51:55.852Z,1.52
2023-03-11T00:54:25.977Z,6.43
2023-03-11T00:56:58.760Z,3.15
2023-03-11T00:59:30.324Z,3.67
2023-03-11T01:02:04.547Z,6.07
2023-03-11T01:04:39.621Z,6.90
2023-03-11T01:07:17.930Z,8.25
2023-03-11T01:09:48.134Z,2.85
2023-03-11T01:12:21.209Z,1.40
2023-03-11T01:14:54.561Z,2.90
2023-03-11T01:17:25.069Z,0.82
2023-03-11T01:20:01.006Z,8.20
2023-03-11T01:22:35.343Z,1.75
2023-03-11T01:25:07.672Z,2.17
2023-03-11T01:27:37.791Z,9.60
2023-03-11T01:30:09.246Z,4.43
2023-03-11T01:32:39.545Z,2.15
2023-03-11T01:35:10.859Z,4.65
2023-03-11T01:37:46.426Z,3.90
2023-03-11T01:40:32.369Z,1.00
2023-03-11T01:43:08.816Z,1.23
2023-03-11T01:45:45.310Z,9.32
2023-03-11T01:48:15.783Z,2.92
2023-03-11T01:50:50.149Z,4.40
2023-03-11T01:53:33.196Z,4.00
2023-03-11T01:56:08.705Z,3.65
2023-03-11T01:58:45.395Z,6.10
2023-03-11T02:01:18.633Z,2.05
2023-03-11T02:03:51.664Z,2.25
2023-03-11T02:06:26.320Z,1.27
2023-03-11T02:09:09.365Z,4.93
2023-03-11T02:11:39.875Z,5.63
2023-03-11T02:14:12.761Z,4.85
2023-03-11T02:16:42.878Z,1.38
2023-03-11T02:19:26.104Z,2.13
2023-03-11T02:21:56.623Z,1.73
2023-03-11T02:24:43.302Z,3.90
2023-03-11T02:27:21.477Z,3.78
2023-03-11T02:29:54.816Z,5.05
2023-03-11T02:32:26.199Z,3.67
2023-03-11T02:34:56.476Z,5.15
2023-03-11T02:37:26.809Z,3.58
2023-03-11T02:40:38.164Z,4.28
2023-03-11T02:43:14.665Z,7.55
2023-03-11T02:45:48.474Z,2.65
2023-03-11T02:48:19.870Z,1.80
2023-03-11T02:50:50.352Z,1.63
2023-03-11T02:53:23.322Z,4.63
2023-03-11T02:55:53.866Z,8.43
2023-03-11T02:58:26.835Z,3.92
2023-03-11T03:00:57.301Z,4.30
2023-03-11T03:03:27.487Z,5.90
2023-03-11T03:05:57.807Z,12.32
2023-03-11T03:08:28.004Z,16.20
2023-03-11T03:11:00.125Z,4.78
2023-03-11T03:13:33.822Z,9.93
2023-03-11T03:16:05.806Z,2.15
2023-03-11T03:18:36.446Z,3.20
2023-03-11T03:21:07.223Z,8.43
2023-03-11T03:23:38.035Z,6.82
2023-03-11T03:26:09.271Z,6.43
2023-03-11T03:28:44.343Z,5.93
2023-03-11T03:31:14.944Z,10.57
2023-03-11T03:33:46.778Z,7.45
2023-03-11T03:36:18.704Z,4.78
2023-03-11T03:38:59.672Z,3.30
2023-03-11T03:41:35.010Z,5.22
2023-03-11T03:44:08.643Z,9.73
2023-03-11T03:46:39.762Z,7.32
2023-03-11T03:49:13.056Z,8.50
2023-03-11T03:51:43.553Z,4.65
2023-03-11T03:54:20.961Z,11.07
2023-03-11T03:56:51.160Z,8.57
2023-03-11T03:59:24.579Z,6.72
2023-03-11T04:02:00.734Z,12.35
2023-03-11T04:04:33.633Z,28.50
2023-03-11T04:07:03.996Z,7.15
2023-03-11T04:09:34.191Z,4.20
2023-03-11T04:12:04.556Z,9.25
2023-03-11T04:14:40.160Z,4.07
2023-03-11T04:17:10.494Z,8.20
2023-03-11T04:19:40.764Z,1.85
2023-03-11T04:22:11.654Z,1.40
2023-03-11T04:24:42.940Z,12.60
2023-03-11T04:27:13.210Z,14.90
2023-03-11T04:29:46.539Z,5.25
2023-03-11T04:32:16.702Z,23.70
2023-03-11T04:34:49.503Z,2.67
2023-03-11T04:37:23.067Z,6.22
2023-03-11T04:39:55.332Z,8.48
2023-03-11T04:42:26.484Z,3.90
2023-03-11T04:45:00.259Z,2.97
2023-03-11T04:47:33.541Z,7.47
2023-03-11T04:50:06.893Z,4.70
2023-03-11T04:52:42.547Z,4.07
2023-03-11T04:55:16.929Z,7.47
2023-03-11T04:57:49.428Z,10.27
2023-03-11T05:00:27.261Z,7.70
2023-03-11T05:03:09.812Z,4.93
2023-03-11T05:05:40.189Z,21.20
2023-03-11T05:08:11.098Z,11.40
2023-03-11T05:10:43.069Z,23.90
2023-03-11T05:13:13.976Z,12.98
2023-03-11T05:15:53.303Z,17.65
2023-03-11T05:18:24.860Z,27.23
2023-03-11T05:20:57.778Z,137.05
2023-03-11T05:23:31.842Z,75.30
2023-03-11T05:26:02.466Z,113.05
2023-03-11T05:28:35.369Z,156.15
2023-03-11T05:31:18.178Z,184.60
2023-03-11T05:33:49.722Z,131.07
2023-03-11T05:36:19.938Z,145.77
2023-03-11T05:38:51.332Z,174.27
2023-03-11T05:41:22.656Z,196.32
2023-03-11T05:43:53.510Z,148.18
2023-03-11T05:46:29.156Z,108.30
2023-03-11T05:49:00.460Z,85.93
2023-03-11T05:51:31.562Z,89.07
2023-03-11T05:54:02.558Z,45.55
2023-03-11T05:56:41.686Z,41.95
2023-03-11T05:59:16.397Z,88.20
2023-03-11T06:01:51.770Z,129.35
2023-03-11T06:04:22.348Z,88.85
2023-03-11T06:06:53.096Z,148.32
2023-03-11T06:09:26.786Z,53.50
2023-03-11T06:11:57.371Z,58.17
2023-03-11T06:14:33.566Z,64.88
2023-03-11T06:17:07.815Z,77.10
2023-03-11T06:19:38.446Z,46.92
2023-03-11T06:22:12.837Z,94.70
2023-03-11T06:24:43.159Z,36.97
2023-03-11T06:27:14.617Z,90.35
2023-03-11T06:29:47.672Z,63.78
2023-03-11T06:32:22.013Z,55.78
2023-03-11T06:34:55.749Z,108.03
2023-03-11T06:37:27.817Z,93.13
2023-03-11T06:39:59.700Z,80.43
2023-03-11T06:42:30.370Z,56.95
2023-03-11T06:45:02.994Z,53.72
2023-03-11T06:47:36.508Z,37.63
2023-03-11T06:50:09.361Z,59.58
2023-03-11T06:52:40.364Z,36.67
2023-03-11T06:55:12.501Z,70.30
2023-03-11T06:57:45.934Z,23.65
2023-03-11T07:00:18.092Z,49.03
2023-03-11T07:02:56.416Z,13.40
2023-03-11T07:05:28.576Z,18.30
2023-03-11T07:08:04.538Z,7.68
2023-03-11T07:10:35.901Z,21.67
2023-03-11T07:13:06.723Z,25.42
2023-03-11T07:15:37.220Z,2.25
2023-03-11T07:18:10.162Z,5.55
2023-03-11T07:20:40.606Z,10.48
2023-03-11T07:23:10.760Z,31.13
2023-03-11T07:25:41.070Z,8.32
2023-03-11T07:28:11.429Z,12.02
2023-03-11T07:30:44.607Z,10.57
2023-03-11T07:33:18.751Z,14.00
2023-03-11T07:35:50.261Z,12.57
2023-03-11T07:38:21.120Z,16.73
2023-03-11T07:41:00.545Z,16.60
2023-03-11T07:43:32.871Z,17.73
2023-03-11T07:46:08.245Z,5.72
2023-03-11T07:48:42.502Z,9.35
2023-03-11T07:51:17.220Z,2.75
2023-03-11T07:53:47.961Z,10.68
2023-03-11T07:56:20.387Z,9.52
2023-03-11T07:58:51.048Z,2.80
2023-03-11T08:01:24.445Z,19.45
2023-03-11T08:03:59.535Z,18.65
2023-03-11T08:06:32.679Z,1.75
2023-03-11T08:09:04.895Z,3.45
2023-03-11T08:11:35.749Z,5.30
2023-03-11T08:14:07.626Z,6.03
2023-03-11T08:16:37.830Z,4.82
2023-03-11T08:19:10.800Z,10.77
2023-03-11T08:21:41.024Z,4.13
2023-03-11T08:24:13.727Z,26.08
2023-03-11T08:26:44.418Z,57.75
2023-03-11T08:29:14.584Z,29.10
2023-03-11T08:31:45.050Z,286.38
2023-03-11T08:34:21.789Z,56.22
2023-03-11T08:36:52.560Z,7.47
2023-03-11T08:39:24.319Z,30.38
2023-03-11T08:41:54.875Z,24.80
2023-03-11T08:44:25.384Z,6.18
2023-03-11T08:46:55.990Z,25.65
2023-03-11T08:49:29.309Z,63.33
2023-03-11T08:54:29.797Z,22.92
2023-03-11T08:57:03.113Z,9.77
2023-03-11T08:59:35.257Z,46.60
2023-03-11T09:02:05.419Z,54.85
2023-03-11T09:04:39.102Z,20.42
2023-03-11T09:07:09.186Z,42.30
2023-03-11T09:09:39.550Z,33.60
2023-03-11T09:12:14.584Z,30.35
2023-03-11T09:14:44.683Z,65.85
2023-03-11T09:17:15.304Z,41.50
2023-03-11T09:19:48.163Z,19.38
2023-03-11T09:22:20.316Z,68.03
2023-03-11T09:24:50.354Z,41.38
2023-03-11T09:27:24.274Z,40.90
2023-03-11T09:29:55.876Z,47.33
2023-03-11T09:32:30.821Z,38.20
2023-03-11T09:35:04.709Z,48.85
2023-03-11T09:37:36.560Z,72.15
2023-03-11T09:40:08.122Z,46.15
2023-03-11T09:42:46.079Z,18.88
2023-03-11T09:45:22.147Z,26.88
2023-03-11T09:48:10.706Z,19.17
2023-03-11T09:50:51.318Z,12.15
2023-03-11T09:53:36.733Z,18.42
2023-03-11T09:56:10.330Z,5.05
2023-03-11T09:58:47.358Z,28.70
2023-03-11T10:01:25.250Z,39.40
2023-03-11T10:03:58.997Z,4.82
2023-03-11T10:06:34.135Z,6.47
2023-03-11T10:09:13.787Z,19.63
2023-03-11T10:11:55.037Z,10.68
2023-03-11T10:14:49.955Z,40.70
2023-03-11T10:17:34.889Z,10.48
2023-03-11T10:20:13.981Z,19.40
2023-03-11T10:22:56.181Z,4.13
2023-03-11T10:25:30.702Z,6.88
2023-03-11T10:28:05.866Z,7.63
2023-03-11T10:30:43.992Z,37.42
2023-03-11T10:33:25.511Z,9.40
2023-03-11T10:35:57.860Z,6.32
2023-03-11T10:38:36.019Z,19.98
2023-03-11T10:41:14.205Z,27.17
2023-03-11T10:43:49.811Z,13.15
2023-03-11T10:46:24.146Z,4.53
2023-03-11T10:48:54.596Z,13.05
2023-03-11T10:51:27.195Z,33.70
2023-03-11T10:54:01.958Z,16.35
2023-03-11T10:56:34.580Z,11.85
2023-03-11T10:59:06.834Z,20.42
2023-03-11T11:01:37.592Z,12.40
2023-03-11T11:04:30.321Z,6.40
2023-03-11T11:07:01.621Z,10.38
2023-03-11T11:09:38.058Z,25.90
2023-03-11T11:12:09.929Z,15.85
2023-03-11T11:14:51.852Z,30.27
2023-03-11T11:17:27.444Z,12.68
2023-03-11T11:19:59.412Z,28.50
2023-03-11T11:22:32.416Z,30.38
2023-03-11T11:25:05.145Z,33.20
2023-03-11T11:27:35.269Z,52.35
2023-03-11T11:30:19.045Z,38.72
2023-03-11T11:32:49.402Z,32.60
2023-03-11T11:35:20.611Z,38.35
2023-03-11T11:37:52.683Z,27.55
2023-03-11T11:40:30.656Z,42.15
2023-03-11T11:43:04.357Z,44.15
2023-03-11T11:45:41.373Z,79.65
2023-03-11T11:48:21.018Z,40.75
2023-03-11T11:50:56.477Z,36.33
2023-03-11T11:53:38.355Z,35.70
2023-03-11T11:56:11.098Z,48.15
2023-03-11T11:58:42.896Z,26.02
2023-03-11T12:01:19.600Z,48.05
2023-03-11T12:04:28.617Z,37.75
2023-03-11T12:07:14.902Z,40.85
2023-03-11T12:09:55.117Z,62.72
2023-03-11T12:12:35.718Z,115.55
2023-03-11T12:15:14.764Z,113.38
2023-03-11T12:17:48.007Z,71.25
2023-03-11T12:20:28.042Z,56.58
2023-03-11T12:23:18.554Z,70.65
2023-03-11T12:26:00.810Z,84.57
2023-03-11T12:28:42.277Z,33.40
2023-03-11T12:31:15.327Z,68.68
2023-03-11T12:33:48.918Z,50.40
2023-03-11T12:36:31.330Z,49.88
2023-03-11T12:39:05.553Z,52.58
2023-03-11T12:41:39.924Z,96.15
2023-03-11T12:44:29.021Z,70.95
2023-03-11T12:47:20.991Z,55.60
2023-03-11T12:49:51.917Z,79.35
2023-03-11T12:52:34.554Z,91.63
2023-03-11T12:55:34.727Z,56.17
2023-03-11T12:58:30.090Z,37.15
2023-03-11T13:01:20.584Z,130.57
2023-03-11T13:04:01.604Z,104.13
2023-03-11T13:07:04.913Z,41.47
2023-03-11T13:09:35.662Z,52.72
2023-03-11T13:12:05.789Z,57.30
2023-03-11T13:14:39.275Z,34.95
2023-03-11T13:17:31.042Z,67.85
2023-03-11T13:20:02.809Z,73.03
2023-03-11T13:23:17.816Z,40.53
2023-03-11T13:29:13.289Z,30.05
2023-03-11T13:31:59.159Z,33.28
2023-03-11T13:34:41.971Z,37.78
2023-03-11T13:37:28.365Z,20.85
2023-03-11T13:40:22.318Z,18.13
2023-03-11T13:42:58.122Z,19.20
2023-03-11T13:45:34.624Z,55.03
2023-03-11T13:48:11.109Z,12.48
2023-03-11T13:50:49.001Z,87.35
2023-03-11T13:53:26.110Z,18.48
2023-03-11T13:55:56.380Z,41.58
2023-03-11T13:58:29.087Z,8.68
2023-03-11T14:01:02.554Z,22.80
2023-03-11T14:03:39.577Z,23.35
2023-03-11T14:06:19.725Z,24.35
2023-03-11T14:08:56.365Z,60.28
2023-03-11T14:11:30.222Z,35.45
2023-03-11T14:16:36.469Z,41.50
2023-03-11T14:19:11.537Z,63.47
2023-03-11T14:21:48.731Z,66.45
2023-03-11T14:24:21.498Z,43.90
2023-03-11T14:26:55.319Z,10.68
2023-03-11T14:31:59.731Z,36.08
2023-03-11T14:34:31.902Z,38.15
2023-03-11T14:37:05.324Z,39.90
2023-03-11T14:39:36.902Z,44.50
2023-03-11T14:42:18.957Z,39.13
2023-03-11T14:44:54.780Z,21.83
2023-03-11T14:47:32.733Z,30.92
2023-03-11T14:50:04.050Z,18.85
2023-03-11T14:52:44.584Z,15.40
2023-03-11T14:55:18.498Z,15.32
2023-03-11T15:00:25.816Z,10.50
2023-03-11T15:03:19.765Z,35.33
2023-03-11T15:05:53.200Z,61.22
2023-03-11T15:08:30.940Z,26.77
2023-03-11T15:11:09.883Z,32.95
2023-03-11T15:13:42.107Z,27.20
2023-03-11T15:16:26.717Z,28.35
2023-03-11T15:18:57.800Z,37.38
2023-03-11T15:21:28.311Z,38.28
2023-03-11T15:24:07.024Z,55.55
2023-03-11T15:26:38.579Z,10.70
2023-03-11T15:29:17.409Z,14.07
2023-03-11T15:31:48.739Z,19.98
2023-03-11T15:34:28.666Z,185.77
2023-03-11T15:37:02.792Z,14.20
2023-03-11T15:39:48.692Z,11.95
2023-03-11T15:42:23.172Z,10.05
2023-03-11T15:45:05.820Z,13.57
2023-03-11T15:47:36.223Z,9.13
2023-03-11T15:50:24.238Z,20.73
2023-03-11T15:52:57.333Z,3.85
2023-03-11T15:55:30.818Z,11.23
2023-03-11T15:58:05.582Z,16.38
2023-03-11T16:00:36.578Z,4.32
2023-03-11T16:03:07.817Z,10.90
2023-03-11T16:05:37.940Z,3.40
2023-03-11T16:08:08.441Z,6.18
2023-03-11T16:10:42.664Z,3.00
2023-03-11T16:13:15.757Z,4.97
2023-03-11T16:15:47.316Z,3.13
2023-03-11T16:18:17.604Z,3.97
2023-03-11T16:20:50.997Z,2.33
2023-03-11T16:23:23.907Z,7.90
2023-03-11T16:25:58.786Z,1.45
2023-03-11T16:28:28.908Z,5.45
2023-03-11T16:31:05.259Z,1.67
2023-03-11T16:33:38.043Z,7.05
2023-03-11T16:36:09.263Z,4.47
2023-03-11T16:38:47.250Z,6.35
2023-03-11T16:41:20.889Z,5.30
2023-03-11T16:43:51.267Z,2.63
2023-03-11T16:46:21.616Z,5.18
2023-03-11T16:48:53.693Z,6.70
2023-03-11T16:51:23.929Z,6.47
2023-03-11T16:53:54.311Z,3.75
2023-03-11T16:56:32.274Z,10.90
2023-03-11T16:59:02.519Z,20.40
2023-03-11T17:01:34.568Z,72.97
2023-03-11T17:04:06.567Z,49.80
2023-03-11T17:06:40.423Z,24.40
2023-03-11T17:09:12.048Z,101.03
2023-03-11T17:11:50.569Z,31.13
2023-03-11T17:14:22.936Z,26.77
2023-03-11T17:16:54.725Z,2.53
2023-03-11T17:19:25.204Z,8.10
2023-03-11T17:21:58.506Z,12.90
2023-03-11T17:24:31.472Z,3.15
2023-03-11T17:27:05.051Z,14.18
2023-03-11T17:29:49.226Z,7.22
2023-03-11T17:35:00.286Z,8.77
2023-03-11T17:37:30.497Z,5.38
2023-03-11T17:40:01.032Z,2.03
2023-03-11T17:42:34.161Z,5.90
2023-03-11T17:45:05.438Z,9.43
2023-03-11T17:47:44.045Z,88.85
2023-03-11T17:50:17.402Z,6.63
2023-03-11T17:52:49.918Z,25.85
2023-03-11T17:55:24.786Z,35.85
2023-03-11T17:58:04.803Z,9.65
2023-03-11T18:00:37.936Z,42.70
2023-03-11T18:03:10.089Z,21.02
2023-03-11T18:05:40.406Z,34.67
2023-03-11T18:08:11.269Z,50.67
2023-03-11T18:10:41.355Z,8.95
2023-03-11T18:13:15.030Z,14.65
2023-03-11T18:15:45.620Z,5.25
2023-03-11T18:18:16.330Z,18.17
2023-03-11T18:20:48.170Z,6.97
2023-03-11T18:23:21.390Z,11.68
2023-03-11T18:25:56.848Z,15.45
2023-03-11T18:28:33.313Z,13.55
2023-03-11T18:31:09.483Z,11.80
2023-03-11T18:33:51.263Z,13.82
2023-03-11T18:36:31.905Z,44.47
2023-03-11T18:39:05.429Z,20.42
2023-03-11T18:41:37.697Z,9.30
2023-03-11T18:44:12.570Z,17.45
2023-03-11T18:46:46.638Z,72.97
2023-03-11T18:49:17.280Z,27.05
2023-03-11T18:51:48.006Z,26.23
2023-03-11T18:54:18.668Z,49.85
2023-03-11T18:56:49.943Z,21.15
2023-03-11T18:59:24.572Z,10.60
2023-03-11T19:01:58.959Z,39.00
2023-03-11T19:04:30.082Z,31.42
2023-03-11T19:07:00.483Z,9.57
2023-03-11T19:09:32.210Z,29.20
2023-03-11T19:12:06.192Z,9.43
2023-03-11T19:14:44.158Z,5.13
2023-03-11T19:17:16.635Z,9.20
2023-03-11T19:19:53.965Z,46.05
2023-03-11T19:22:27.169Z,17.40
2023-03-11T19:25:01.130Z,5.20
2023-03-11T19:27:35.359Z,12.48
2023-03-11T19:30:17.173Z,8.68
2023-03-11T19:32:52.330Z,4.43
2023-03-11T19:35:24.847Z,9.88
2023-03-11T19:38:00.784Z,7.20
2023-03-11T19:40:39.296Z,5.38
2023-03-11T19:43:11.402Z,8.75
2023-03-11T19:45:45.518Z,3.67
2023-03-11T19:48:17.184Z,3.50
2023-03-11T19:50:50.142Z,7.00
2023-03-11T19:53:22.266Z,6.40
2023-03-11T19:55:55.718Z,16.95
2023-03-11T19:58:30.913Z,14.48
2023-03-11T20:01:05.170Z,76.65
2023-03-11T20:03:38.589Z,161.60
2023-03-11T20:06:11.341Z,176.68
2023-03-11T20:08:48.109Z,141.52
2023-03-11T20:11:24.400Z,114.10
2023-03-11T20:13:58.276Z,186.95
2023-03-11T20:16:32.126Z,103.53
2023-03-11T20:19:04.051Z,141.07
2023-03-11T20:21:43.884Z,118.55
2023-03-11T20:24:16.292Z,123.30
2023-03-11T20:26:51.370Z,123.05
2023-03-11T20:29:22.077Z,78.43
2023-03-11T20:31:59.014Z,74.93
2023-03-11T20:34:29.637Z,80.90
2023-03-11T20:37:03.358Z,95.95
2023-03-11T20:39:34.589Z,173.45
2023-03-11T20:42:05.353Z,54.33
2023-03-11T20:44:47.942Z,80.72
2023-03-11T20:47:21.075Z,51.20
2023-03-11T20:49:51.970Z,40.83
2023-03-11T20:52:22.135Z,54.83
2023-03-11T20:54:52.730Z,58.72
2023-03-11T20:57:24.081Z,48.83
2023-03-11T20:59:54.935Z,50.17
2023-03-11T21:02:30.754Z,48.80
2023-03-11T21:05:06.722Z,27.42
2023-03-11T21:07:37.654Z,43.28
2023-03-11T21:10:12.859Z,26.30
2023-03-11T21:12:46.065Z,70.40
2023-03-11T21:15:17.505Z,45.08
2023-03-11T21:17:50.770Z,20.55
2023-03-11T21:20:30.016Z,20.45
2023-03-11T21:23:04.054Z,41.78
2023-03-11T21:25:42.951Z,75.85
2023-03-11T21:28:14.200Z,31.88
2023-03-11T21:30:48.841Z,65.88
2023-03-11T21:33:25.157Z,57.00
2023-03-11T21:35:59.579Z,30.95
2023-03-11T21:38:33.168Z,27.55
2023-03-11T21:41:14.435Z,29.73
2023-03-11T21:43:46.695Z,24.75
2023-03-11T21:46:21.150Z,11.55
2023-03-11T21:48:54.786Z,28.30
2023-03-11T21:51:27.495Z,13.57
2023-03-11T21:54:00.258Z,14.60
2023-03-11T21:56:32.120Z,35.75
2023-03-11T21:59:03.985Z,23.30
2023-03-11T22:01:35.503Z,36.05
2023-03-11T22:04:09.126Z,33.20
2023-03-11T22:06:40.850Z,27.02
2023-03-11T22:09:11.047Z,32.65
2023-03-11T22:11:42.220Z,30.35
2023-03-11T22:14:13.524Z,26.90
2023-03-11T22:16:49.411Z,27.05
2023-03-11T22:19:26.199Z,34.90
2023-03-11T22:22:01.282Z,19.98
2023-03-11T22:24:31.961Z,18.65
2023-03-11T22:27:08.202Z,17.88
2023-03-11T22:29:44.462Z,22.83
2023-03-11T22:32:14.882Z,17.42
2023-03-11T22:34:48.789Z,35.90
2023-03-11T22:37:19.156Z,28.23
2023-03-11T22:39:50.156Z,11.20
2023-03-11T22:42:21.224Z,33.85
2023-03-11T22:44:52.286Z,33.70
2023-03-11T22:47:24.278Z,24.60
2023-03-11T22:49:57.504Z,34.72
2023-03-11T22:52:29.526Z,15.35
2023-03-11T22:54:59.912Z,21.20
2023-03-11T22:57:39.460Z,10.48
2023-03-11T23:00:19.284Z,32.08
2023-03-11T23:02:50.864Z,27.15
2023-03-11T23:05:25.356Z,12.65
2023-03-11T23:07:55.718Z,22.90
2023-03-11T23:10:26.131Z,23.30
2023-03-11T23:12:56.773Z,25.83
2023-03-11T23:15:30.084Z,14.25
2023-03-11T23:18:01.305Z,8.35
2023-03-11T23:20:39.854Z,9.77
2023-03-11T23:23:15.012Z,43.30
2023-03-11T23:25:45.271Z,10.05
2023-03-11T23:28:15.591Z,9.88
2023-03-11T23:30:47.573Z,19.60
2023-03-11T23:33:18.040Z,17.00
2023-03-11T23:35:52.446Z,7.53
2023-03-11T23:38:24.271Z,20.48
2023-03-11T23:40:56.252Z,25.45
2023-03-11T23:43:27.490Z,18.13
2023-03-11T23:45:58.634Z,16.50
2023-03-11T23:48:28.959Z,7.47
2023-03-11T23:51:03.329Z,12.20
2023-03-11T23:53:35.054Z,11.73
2023-03-11T23:56:11.778Z,9.13
2023-03-11T23:58:44.227Z,9.80
